| time (UTC) | temp C | wind direction | speed KPH | gust KPH | rain 1hr cm | rain 24hr cm | rain mn cm | humidity % | barometer mb |
| 20260507205042 | 26 | 25 | 11.3 | 20.9 | 0.00 | 0.00 | 0.00 | 78 | 1017.8 |
| 20260507204539 | 26 | 46 | 11.3 | 20.9 | 0.00 | 0.00 | 0.00 | 78 | 1017.7 |
| 20260507204036 | 26 | 57 | 19.3 | 24.1 | 0.00 | 0.00 | 0.00 | 77 | 1017.5 |
| 20260507203534 | 26 | 54 | 9.7 | 20.9 | 0.00 | 0.00 | 0.00 | 79 | 1017.5 |
| 20260507203031 | 26 | 70 | 19.3 | 27.4 | 0.00 | 0.00 | 0.00 | 79 | 1017.7 |
| 20260507202527 | 26 | 59 | 14.5 | 27.4 | 0.00 | 0.00 | 0.00 | 79 | 1017.6 |
| 20260507202023 | 26 | 44 | 20.9 | 29.0 | 0.00 | 0.00 | 0.00 | 75 | 1017.7 |
| 20260507201519 | 26 | 48 | 9.7 | 17.7 | 0.00 | 0.00 | 0.00 | 76 | 1017.6 |
| 20260507201015 | 27 | 50 | 25.7 | 29.0 | 0.00 | 0.00 | 0.00 | 72 | 1017.7 |
| 20260507200511 | 27 | 64 | 11.3 | 25.7 | 0.00 | 0.00 | 0.00 | 76 | 1017.8 |
| 20260507200007 | 27 | 46 | 17.7 | 20.9 | 0.00 | 0.00 | 0.00 | 75 | 1017.7 |
| 20260507195504 | 26 | 63 | 14.5 | 25.7 | 0.00 | 0.00 | 0.00 | 77 | 1017.7 |
| 20260507195002 | 27 | 39 | 16.1 | 20.9 | 0.00 | 0.00 | 0.00 | 76 | 1017.9 |
| 20260507194458 | 27 | 66 | 17.7 | 20.9 | 0.00 | 0.00 | 0.00 | 76 | 1017.6 |
| 20260507193954 | 27 | 65 | 19.3 | 27.4 | 0.00 | 0.00 | 0.00 | 76 | 1018.0 |
| 20260507193452 | 27 | 54 | 22.5 | 30.6 | 0.00 | 0.00 | 0.00 | 76 | 1017.9 |
| 20260507192948 | 27 | 70 | 29.0 | 33.8 | 0.00 | 0.00 | 0.00 | 75 | 1018.1 |
| 20260507192444 | 27 | 59 | 19.3 | 30.6 | 0.00 | 0.00 | 0.00 | 75 | 1017.8 |
| 20260507191942 | 27 | 53 | 25.7 | 33.8 | 0.00 | 0.00 | 0.00 | 74 | 1017.7 |
| 20260507191437 | 27 | 52 | 20.9 | 37.0 | 0.00 | 0.00 | 0.00 | 71 | 1017.9 |
| 20260507190934 | 27 | 114 | 16.1 | 20.9 | 0.00 | 0.00 | 0.00 | 72 | 1018.1 |
| 20260507190432 | 27 | 50 | 20.9 | 30.6 | 0.00 | 0.00 | 0.00 | 74 | 1018.1 |
| 20260507185931 | 28 | 79 | 17.7 | 27.4 | 0.00 | 0.00 | 0.00 | 73 | 1017.9 |
| 20260507185427 | 28 | 42 | 12.9 | 22.5 | 0.00 | 0.00 | 0.00 | 73 | 1017.7 |
| 20260507184924 | 27 | 54 | 12.9 | 22.5 | 0.00 | 0.00 | 0.00 | 73 | 1017.9 |
| 20260507184422 | 27 | 58 | 12.9 | 27.4 | 0.00 | 0.00 | 0.00 | 73 | 1018.1 |
| 20260507183919 | 27 | 47 | 19.3 | 24.1 | 0.00 | 0.00 | 0.00 | 73 | 1018.0 |
| 20260507183416 | 27 | 44 | 24.1 | 35.4 | 0.00 | 0.00 | 0.00 | 74 | 1018.3 |
| 20260507182914 | 27 | 46 | 17.7 | 20.9 | 0.00 | 0.00 | 0.00 | 75 | 1018.3 |
| 20260507182409 | 27 | 68 | 22.5 | 33.8 | 0.00 | 0.00 | 0.00 | 76 | 1018.0 |
| 20260507181906 | 27 | 30 | 22.5 | 25.7 | 0.00 | 0.00 | 0.00 | 75 | 1018.1 |
| 20260507181402 | 27 | 22 | 22.5 | 25.7 | 0.00 | 0.00 | 0.00 | 75 | 1018.3 |
| 20260507180859 | 27 | 22 | 20.9 | 29.0 | 0.00 | 0.00 | 0.00 | 75 | 1018.1 |
| 20260507180355 | 27 | 31 | 19.3 | 35.4 | 0.00 | 0.00 | 0.00 | 72 | 1018.4 |
| 20260507175851 | 27 | 27 | 24.1 | 30.6 | 0.00 | 0.00 | 0.00 | 75 | 1018.4 |
| 20260507175348 | 27 | 44 | 25.7 | 33.8 | 0.00 | 0.00 | 0.00 | 73 | 1018.6 |
| 20260507174846 | 27 | 45 | 24.1 | 33.8 | 0.00 | 0.00 | 0.00 | 75 | 1018.6 |
| 20260507174343 | 27 | 41 | 17.7 | 29.0 | 0.00 | 0.00 | 0.00 | 74 | 1018.6 |
| 20260507173840 | 27 | 62 | 16.1 | 29.0 | 0.00 | 0.00 | 0.00 | 72 | 1018.6 |
| 20260507173337 | 27 | 70 | 19.3 | 27.4 | 0.00 | 0.00 | 0.00 | 72 | 1018.7 |
| 20260507172833 | 27 | 36 | 14.5 | 27.4 | 0.00 | 0.00 | 0.00 | 73 | 1018.6 |
| 20260507172331 | 27 | 66 | 20.9 | 25.7 | 0.00 | 0.00 | 0.00 | 71 | 1019.0 |
| 20260507171826 | 27 | 40 | 29.0 | 37.0 | 0.00 | 0.00 | 0.00 | 71 | 1018.9 |
| 20260507171323 | 27 | 63 | 20.9 | 29.0 | 0.00 | 0.00 | 0.00 | 70 | 1018.9 |
| 20260507170820 | 27 | 46 | 25.7 | 30.6 | 0.00 | 0.00 | 0.00 | 70 | 1019.0 |
| 20260507170317 | 27 | 68 | 20.9 | 30.6 | 0.00 | 0.00 | 0.00 | 71 | 1019.1 |
| 20260507165813 | 27 | 30 | 24.1 | 29.0 | 0.00 | 0.00 | 0.00 | 73 | 1019.1 |
| 20260507165309 | 27 | 68 | 20.9 | 29.0 | 0.00 | 0.00 | 0.00 | 72 | 1019.2 |
| 20260507164805 | 27 | 35 | 22.5 | 35.4 | 0.00 | 0.00 | 0.00 | 74 | 1019.4 |
| 20260507164302 | 27 | 72 | 17.7 | 22.5 | 0.00 | 0.00 | 0.00 | 73 | 1019.5 |
| 20260507163759 | 27 | 49 | 20.9 | 30.6 | 0.00 | 0.00 | 0.00 | 74 | 1019.4 |
| 20260507163257 | 27 | 30 | 19.3 | 24.1 | 0.00 | 0.00 | 0.00 | 76 | 1019.5 |
| 20260507162753 | 27 | 46 | 17.7 | 24.1 | 0.00 | 0.00 | 0.00 | 75 | 1019.6 |
| 20260507162249 | 27 | 25 | 12.9 | 24.1 | 0.00 | 0.00 | 0.00 | 76 | 1019.2 |
| 20260507161746 | 27 | 49 | 25.7 | 30.6 | 0.00 | 0.00 | 0.00 | 77 | 1019.8 |
| 20260507161243 | 27 | 45 | 25.7 | 29.0 | 0.00 | 0.00 | 0.00 | 76 | 1019.9 |
| 20260507160738 | 27 | 12 | 17.7 | 35.4 | 0.00 | 0.00 | 0.00 | 77 | 1019.7 |
| 20260507160235 | 27 | 41 | 17.7 | 29.0 | 0.00 | 0.00 | 0.00 | 77 | 1019.7 |
| 20260507155731 | 27 | 30 | 17.7 | 24.1 | 0.00 | 0.00 | 0.00 | 76 | 1019.7 |
| 20260507155227 | 27 | 34 | 17.7 | 27.4 | 0.00 | 0.00 | 0.00 | 77 | 1019.8 |
| 20260507154724 | 27 | 63 | 16.1 | 22.5 | 0.00 | 0.00 | 0.00 | 74 | 1019.8 |
| 20260507154221 | 27 | 44 | 27.4 | 30.6 | 0.00 | 0.00 | 0.00 | 79 | 1019.9 |
| 20260507153718 | 28 | 24 | 17.7 | 24.1 | 0.00 | 0.00 | 0.00 | 75 | 1019.7 |
| 20260507153214 | 27 | 53 | 14.5 | 27.4 | 0.00 | 0.00 | 0.00 | 75 | 1020.0 |
| 20260507152711 | 27 | 42 | 11.3 | 20.9 | 0.00 | 0.00 | 0.00 | 74 | 1020.0 |
| 20260507152207 | 27 | 43 | 25.7 | 30.6 | 0.00 | 0.00 | 0.00 | 73 | 1019.8 |
| 20260507151703 | 27 | 43 | 20.9 | 27.4 | 0.00 | 0.00 | 0.00 | 70 | 1019.9 |
| 20260507151200 | 27 | 38 | 19.3 | 24.1 | 0.00 | 0.00 | 0.00 | 70 | 1019.8 |
| 20260507150657 | 27 | 37 | 25.7 | 30.6 | 0.00 | 0.00 | 0.00 | 71 | 1020.0 |
| 20260507150154 | 27 | 31 | 22.5 | 24.1 | 0.00 | 0.00 | 0.00 | 72 | 1019.9 |
| 20260507145649 | 28 | 56 | 11.3 | 17.7 | 0.00 | 0.00 | 0.00 | 72 | 1019.9 |
| 20260507145147 | 27 | 34 | 9.7 | 22.5 | 0.00 | 0.00 | 0.00 | 73 | 1019.9 |
| 20260507144643 | 28 | 59 | 20.9 | 24.1 | 0.00 | 0.00 | 0.00 | 73 | 1019.9 |
| 20260507144141 | 27 | 38 | 12.9 | 22.5 | 0.00 | 0.00 | 0.00 | 75 | 1019.9 |
| 20260507143637 | 27 | 61 | 17.7 | 25.7 | 0.00 | 0.00 | 0.00 | 74 | 1019.9 |
| 20260507143135 | 27 | 33 | 16.1 | 20.9 | 0.00 | 0.00 | 0.00 | 73 | 1020.0 |
| 20260507142630 | 27 | 29 | 8.0 | 11.3 | 0.00 | 0.00 | 0.00 | 74 | 1019.8 |
| 20260507142127 | 27 | 53 | 12.9 | 24.1 | 0.00 | 0.00 | 0.00 | 73 | 1020.1 |
| 20260507141623 | 27 | 49 | 11.3 | 17.7 | 0.00 | 0.00 | 0.00 | 75 | 1020.1 |
| 20260507141120 | 27 | 38 | 9.7 | 20.9 | 0.00 | 0.00 | 0.00 | 73 | 1020.1 |
| 20260507140617 | 27 | 33 | 14.5 | 17.7 | 0.00 | 0.00 | 0.00 | 73 | 1020.0 |
| 20260507140114 | 27 | 33 | 12.9 | 16.1 | 0.00 | 0.00 | 0.00 | 73 | 1020.1 |
| 20260507135611 | 27 | 67 | 9.7 | 12.9 | 0.00 | 0.00 | 0.00 | 75 | 1020.1 |
| 20260507135109 | 27 | 60 | 11.3 | 16.1 | 0.00 | 0.00 | 0.00 | 75 | 1020.2 |
| 20260507134605 | 27 | 83 | 8.0 | 12.9 | 0.00 | 0.00 | 0.00 | 74 | 1020.3 |
| 20260507134101 | 26 | 46 | 9.7 | 16.1 | 0.00 | 0.00 | 0.00 | 74 | 1020.0 |
| 20260507133557 | 27 | 41 | 17.7 | 17.7 | 0.00 | 0.00 | 0.00 | 72 | 1020.0 |
| 20260507133055 | 26 | 44 | 12.9 | 14.5 | 0.00 | 0.00 | 0.00 | 72 | 1020.2 |
| 20260507132551 | 26 | 21 | 16.1 | 20.9 | 0.00 | 0.00 | 0.00 | 73 | 1020.2 |
| 20260507132048 | 27 | 46 | 11.3 | 16.1 | 0.00 | 0.00 | 0.00 | 70 | 1020.2 |
| 20260507131545 | 27 | 28 | 16.1 | 16.1 | 0.00 | 0.00 | 0.00 | 71 | 1020.1 |
| 20260507131043 | 26 | 44 | 14.5 | 16.1 | 0.00 | 0.00 | 0.00 | 71 | 1020.2 |
| 20260507130539 | 26 | 33 | 6.4 | 12.9 | 0.00 | 0.00 | 0.00 | 73 | 1020.2 |
| 20260507130037 | 26 | 42 | 6.4 | 14.5 | 0.00 | 0.00 | 0.00 | 73 | 1020.2 |
| 20260507125536 | 26 | 22 | 14.5 | 17.7 | 0.00 | 0.00 | 0.00 | 73 | 1020.0 |
| 20260507125032 | 27 | 17 | 14.5 | 16.1 | 0.00 | 0.00 | 0.00 | 70 | 1020.0 |
| 20260507124528 | 27 | 50 | 9.7 | 14.5 | 0.00 | 0.00 | 0.00 | 66 | 1020.0 |
| 20260507124026 | 27 | 29 | 12.9 | 14.5 | 0.00 | 0.00 | 0.00 | 66 | 1019.7 |
| 20260507123525 | 27 | 40 | 6.4 | 11.3 | 0.00 | 0.00 | 0.00 | 67 | 1019.9 |
| 20260507123021 | 27 | 32 | 4.8 | 9.7 | 0.00 | 0.00 | 0.00 | 70 | 1019.9 |
| 20260507122516 | 27 | 123 | 3.2 | 9.7 | 0.00 | 0.00 | 0.00 | 65 | 1019.8 |
| 20260507122012 | 27 | 107 | 9.7 | 11.3 | 0.00 | 0.00 | 0.00 | 66 | 1019.9 |
| 20260507121508 | 26 | 74 | 4.8 | 12.9 | 0.00 | 0.00 | 0.00 | 66 | 1019.8 |
| 20260507121004 | 27 | 77 | 9.7 | 11.3 | 0.00 | 0.00 | 0.00 | 67 | 1019.3 |
| 20260507120500 | 27 | 100 | 6.4 | 6.4 | 0.00 | 0.00 | 0.00 | 63 | 1019.5 |
| 20260507115957 | 27 | 132 | 3.2 | 3.2 | 0.00 | 0.00 | 0.00 | 65 | 1019.2 |
| 20260507115454 | 26 | 129 | 8.0 | 9.7 | 0.00 | 0.00 | 0.00 | 66 | 1019.1 |
| 20260507114949 | 26 | 134 | 1.6 | 6.4 | 0.00 | 0.00 | 0.00 | 67 | 1019.3 |
| 20260507114446 | 26 | 139 | 8.0 | 9.7 | 0.00 | 0.00 | 0.00 | 67 | 1019.1 |
| 20260507113943 | 26 | 136 | 0.0 | 4.8 | 0.00 | 0.00 | 0.00 | 69 | 1019.0 |
| 20260507113440 | 26 | 141 | 1.6 | 3.2 | 0.00 | 0.00 | 0.00 | 68 | 1018.8 |
| 20260507112937 | 26 | 146 | 3.2 | 6.4 | 0.00 | 0.00 | 0.00 | 71 | 1018.9 |
| 20260507112435 | 25 | 130 | 3.2 | 4.8 | 0.00 | 0.00 | 0.00 | 71 | 1018.9 |
| 20260507111931 | 25 | 159 | 1.6 | 4.8 | 0.00 | 0.00 | 0.00 | 72 | 1018.7 |
| 20260507111429 | 25 | 180 | 1.6 | 3.2 | 0.00 | 0.00 | 0.00 | 73 | 1018.8 |
| 20260507110925 | 24 | 178 | 3.2 | 4.8 | 0.00 | 0.00 | 0.00 | 74 | 1018.9 |
| 20260507110421 | 24 | 173 | 3.2 | 3.2 | 0.00 | 0.00 | 0.00 | 73 | 1018.9 |
| 20260507105918 | 24 | 158 | 1.6 | 4.8 | 0.00 | 0.00 | 0.00 | 73 | 1019.1 |
| 20260507105415 | 23 | 178 | 3.2 | 6.4 | 0.00 | 0.00 | 0.00 | 76 | 1019.0 |
| 20260507104912 | 23 | 168 | 3.2 | 4.8 | 0.00 | 0.00 | 0.00 | 76 | 1018.8 |
| 20260507104408 | 23 | 176 | 4.8 | 6.4 | 0.00 | 0.00 | 0.00 | 76 | 1018.9 |
| 20260507103904 | 23 | 178 | 3.2 | 4.8 | 0.00 | 0.00 | 0.00 | 75 | 1019.0 |
| 20260507103401 | 23 | 182 | 4.8 | 4.8 | 0.00 | 0.00 | 0.00 | 77 | 1018.8 |
| 20260507102857 | 22 | 179 | 6.4 | 6.4 | 0.00 | 0.00 | 0.00 | 82 | 1019.0 |
| 20260507102354 | 22 | 193 | 6.4 | 6.4 | 0.00 | 0.00 | 0.00 | 81 | 1018.5 |
| 20260507101850 | 23 | 180 | 3.2 | 3.2 | 0.00 | 0.00 | 0.00 | 76 | 1018.6 |
| 20260507101345 | 23 | 132 | 0.0 | 0.0 | 0.00 | 0.00 | 0.00 | 75 | 1018.7 |
| 20260507100842 | 23 | 132 | 0.0 | 0.0 | 0.00 | 0.00 | 0.00 | 76 | 1018.8 |
| 20260507100341 | 24 | 125 | 1.6 | 3.2 | 0.00 | 0.00 | 0.00 | 73 | 1018.6 |
| 20260507095838 | 23 | 137 | 4.8 | 6.4 | 0.00 | 0.00 | 0.00 | 74 | 1018.6 |
| 20260507095335 | 24 | 137 | 6.4 | 6.4 | 0.00 | 0.00 | 0.00 | 73 | 1018.6 |
| 20260507094832 | 23 | 140 | 6.4 | 6.4 | 0.00 | 0.00 | 0.00 | 73 | 1018.6 |
| 20260507094328 | 22 | 133 | 4.8 | 4.8 | 0.00 | 0.00 | 0.00 | 77 | 1018.3 |
| 20260507093825 | 22 | 160 | 0.0 | 1.6 | 0.00 | 0.00 | 0.00 | 79 | 1018.3 |
| 20260507093324 | 22 | 172 | 3.2 | 3.2 | 0.00 | 0.00 | 0.00 | 79 | 1018.0 |
| 20260507092821 | 23 | 148 | 4.8 | 4.8 | 0.00 | 0.00 | 0.00 | 78 | 1018.5 |
| 20260507092318 | 23 | 139 | 3.2 | 4.8 | 0.00 | 0.00 | 0.00 | 77 | 1018.0 |
| 20260507091814 | 22 | 146 | 1.6 | 3.2 | 0.00 | 0.00 | 0.00 | 79 | 1018.2 |
| 20260507091311 | 22 | 172 | 1.6 | 3.2 | 0.00 | 0.00 | 0.00 | 80 | 1018.4 |
| 20260507090811 | 22 | 175 | 3.2 | 3.2 | 0.00 | 0.00 | 0.00 | 80 | 1018.1 |
| 20260507090308 | 22 | 172 | 1.6 | 3.2 | 0.00 | 0.00 | 0.00 | 80 | 1018.2 |
| 20260507085805 | 22 | 170 | 3.2 | 4.8 | 0.00 | 0.00 | 0.00 | 81 | 1018.3 |
| 20260507085302 | 22 | 176 | 4.8 | 6.4 | 0.00 | 0.00 | 0.00 | 82 | 1018.5 |
| 20260507084759 | 22 | 168 | 3.2 | 4.8 | 0.00 | 0.00 | 0.00 | 79 | 1018.3 |
| 20260507084255 | 23 | 163 | 1.6 | 1.6 | 0.00 | 0.00 | 0.00 | 75 | 1018.3 |
| 20260507083754 | 23 | 172 | 3.2 | 3.2 | 0.00 | 0.00 | 0.00 | 77 | 1018.5 |
| 20260507083249 | 23 | 154 | 1.6 | 3.2 | 0.00 | 0.00 | 0.00 | 79 | 1018.6 |
| 20260507082745 | 23 | 170 | 3.2 | 6.4 | 0.00 | 0.00 | 0.00 | 79 | 1018.6 |
| 20260507082242 | 23 | 178 | 3.2 | 4.8 | 0.00 | 0.00 | 0.00 | 79 | 1018.4 |
| 20260507081738 | 22 | 151 | 1.6 | 3.2 | 0.00 | 0.00 | 0.00 | 79 | 1018.3 |
| 20260507081235 | 22 | 175 | 3.2 | 3.2 | 0.00 | 0.00 | 0.00 | 82 | 1018.3 |
| 20260507080731 | 23 | 177 | 3.2 | 4.8 | 0.00 | 0.00 | 0.00 | 81 | 1018.7 |
| 20260507080227 | 22 | 178 | 4.8 | 4.8 | 0.00 | 0.00 | 0.00 | 80 | 1018.5 |
| 20260507075723 | 23 | 176 | 3.2 | 3.2 | 0.00 | 0.00 | 0.00 | 79 | 1018.3 |
| 20260507075220 | 23 | 162 | 1.6 | 4.8 | 0.00 | 0.00 | 0.00 | 77 | 1018.3 |
| 20260507074716 | 23 | 147 | 3.2 | 6.4 | 0.00 | 0.00 | 0.00 | 76 | 1018.4 |
| 20260507074214 | 23 | 141 | 9.7 | 9.7 | 0.00 | 0.00 | 0.00 | 76 | 1018.5 |
| 20260507073710 | 23 | 145 | 6.4 | 6.4 | 0.00 | 0.00 | 0.00 | 78 | 1018.4 |
| 20260507073201 | 23 | 134 | 6.4 | 6.4 | 0.00 | 0.00 | 0.00 | 77 | 1018.4 |
| 20260507072659 | 23 | 139 | 6.4 | 9.7 | 0.00 | 0.00 | 0.00 | 77 | 1018.5 |
| 20260507072156 | 23 | 136 | 3.2 | 3.2 | 0.00 | 0.00 | 0.00 | 78 | 1018.5 |
| 20260507071654 | 23 | 121 | 4.8 | 6.4 | 0.00 | 0.00 | 0.00 | 78 | 1018.6 |
| 20260507071149 | 23 | 128 | 6.4 | 6.4 | 0.00 | 0.00 | 0.00 | 77 | 1018.6 |
| 20260507070647 | 24 | 129 | 4.8 | 6.4 | 0.00 | 0.00 | 0.00 | 76 | 1018.7 |
| 20260507070143 | 24 | 118 | 6.4 | 6.4 | 0.00 | 0.00 | 0.00 | 75 | 1018.7 |
| 20260507065639 | 24 | 122 | 8.0 | 9.7 | 0.00 | 0.00 | 0.00 | 75 | 1018.7 |
| 20260507065136 | 24 | 135 | 4.8 | 4.8 | 0.00 | 0.00 | 0.00 | 75 | 1018.8 |
| 20260507064634 | 24 | 140 | 4.8 | 4.8 | 0.00 | 0.00 | 0.00 | 76 | 1018.8 |
| 20260507064133 | 24 | 156 | 1.6 | 4.8 | 0.00 | 0.00 | 0.00 | 78 | 1018.9 |
| 20260507063630 | 23 | 140 | 1.6 | 3.2 | 0.00 | 0.00 | 0.00 | 79 | 1018.9 |
| 20260507063127 | 24 | 165 | 1.6 | 1.6 | 0.00 | 0.00 | 0.00 | 81 | 1019.2 |
| 20260507062623 | 23 | 130 | 3.2 | 3.2 | 0.00 | 0.00 | 0.00 | 78 | 1019.3 |
| 20260507062121 | 23 | 142 | 0.0 | 0.0 | 0.00 | 0.00 | 0.00 | 81 | 1019.2 |
| 20260507061619 | 23 | 143 | 0.0 | 0.0 | 0.00 | 0.00 | 0.00 | 82 | 1019.1 |
| 20260507061117 | 23 | 122 | 0.0 | 1.6 | 0.00 | 0.00 | 0.00 | 82 | 1019.3 |
| 20260507060615 | 23 | 162 | 1.6 | 1.6 | 0.00 | 0.00 | 0.00 | 81 | 1019.4 |
| 20260507060111 | 23 | 174 | 3.2 | 3.2 | 0.00 | 0.00 | 0.00 | 84 | 1019.3 |
| 20260507055606 | 23 | 167 | 0.0 | 3.2 | 0.00 | 0.00 | 0.00 | 84 | 1019.7 |
| 20260507055102 | 24 | 165 | 0.0 | 1.6 | 0.00 | 0.00 | 0.00 | 81 | 1019.5 |
| 20260507054558 | 24 | 170 | 0.0 | 0.0 | 0.00 | 0.00 | 0.00 | 80 | 1019.6 |
| 20260507054056 | 25 | 146 | 3.2 | 3.2 | 0.00 | 0.00 | 0.00 | 77 | 1019.7 |
| 20260507053553 | 25 | 140 | 6.4 | 6.4 | 0.00 | 0.00 | 0.00 | 75 | 1019.9 |
| 20260507053052 | 25 | 115 | 6.4 | 9.7 | 0.00 | 0.00 | 0.00 | 76 | 1019.6 |
| 20260507052549 | 24 | 104 | 6.4 | 6.4 | 0.00 | 0.00 | 0.00 | 80 | 1019.7 |
| 20260507052046 | 24 | 116 | 8.0 | 9.7 | 0.00 | 0.00 | 0.00 | 84 | 1019.7 |
| 20260507051543 | 24 | 120 | 8.0 | 11.3 | 0.00 | 0.00 | 0.00 | 84 | 1019.8 |
| 20260507051040 | 24 | 124 | 6.4 | 9.7 | 0.00 | 0.00 | 0.00 | 85 | 1020.0 |
| 20260507050536 | 24 | 112 | 8.0 | 9.7 | 0.00 | 0.00 | 0.00 | 86 | 1020.0 |
| 20260507050033 | 24 | 125 | 8.0 | 9.7 | 0.00 | 0.00 | 0.00 | 87 | 1020.3 |
| 20260507045530 | 24 | 105 | 6.4 | 9.7 | 0.00 | 0.00 | 0.00 | 86 | 1020.1 |
| 20260507045027 | 24 | 134 | 6.4 | 9.7 | 0.00 | 0.00 | 0.00 | 86 | 1020.6 |
| 20260507044524 | 24 | 110 | 9.7 | 11.3 | 0.00 | 0.00 | 0.00 | 85 | 1020.3 |
| 20260507044021 | 24 | 107 | 6.4 | 9.7 | 0.00 | 0.00 | 0.00 | 86 | 1020.4 |
| 20260507043516 | 25 | 119 | 6.4 | 11.3 | 0.00 | 0.00 | 0.00 | 85 | 1020.4 |
| 20260507043014 | 25 | 141 | 6.4 | 11.3 | 0.00 | 0.00 | 0.00 | 85 | 1020.4 |
| 20260507042510 | 25 | 172 | 3.2 | 11.3 | 0.00 | 0.00 | 0.00 | 86 | 1020.1 |
| 20260507042005 | 25 | 166 | 4.8 | 9.7 | 0.00 | 0.00 | 0.00 | 86 | 1020.3 |
| 20260507041503 | 25 | 182 | 8.0 | 11.3 | 0.00 | 0.00 | 0.00 | 86 | 1020.3 |
| 20260507040959 | 25 | 176 | 6.4 | 11.3 | 0.00 | 0.00 | 0.00 | 86 | 1020.4 |
| 20260507040455 | 25 | 164 | 6.4 | 11.3 | 0.00 | 0.00 | 0.00 | 87 | 1020.4 |
| 20260507035951 | 25 | 166 | 3.2 | 11.3 | 0.00 | 0.00 | 0.00 | 88 | 1020.5 |
| 20260507035448 | 25 | 146 | 6.4 | 11.3 | 0.00 | 0.00 | 0.00 | 88 | 1020.5 |
| 20260507034944 | 25 | 167 | 4.8 | 11.3 | 0.00 | 0.00 | 0.00 | 88 | 1020.4 |
| 20260507034441 | 25 | 184 | 6.4 | 12.9 | 0.00 | 0.00 | 0.00 | 88 | 1020.7 |
| 20260507033940 | 25 | 151 | 4.8 | 9.7 | 0.00 | 0.00 | 0.00 | 89 | 1020.5 |
| 20260507033437 | 25 | 175 | 8.0 | 12.9 | 0.00 | 0.00 | 0.00 | 89 | 1020.5 |
| 20260507032934 | 25 | 180 | 8.0 | 12.9 | 0.00 | 0.00 | 0.00 | 90 | 1020.7 |
| 20260507032431 | 25 | 164 | 6.4 | 12.9 | 0.00 | 0.00 | 0.00 | 90 | 1020.4 |
| 20260507031927 | 25 | 183 | 8.0 | 12.9 | 0.00 | 0.00 | 0.00 | 89 | 1020.6 |
| 20260507031426 | 25 | 186 | 8.0 | 12.9 | 0.00 | 0.00 | 0.00 | 90 | 1020.8 |
| 20260507030920 | 25 | 166 | 4.8 | 9.7 | 0.00 | 0.00 | 0.00 | 89 | 1020.8 |
| 20260507030418 | 25 | 177 | 6.4 | 11.3 | 0.00 | 0.00 | 0.00 | 89 | 1020.4 |
| 20260507025914 | 25 | 173 | 8.0 | 11.3 | 0.00 | 0.00 | 0.00 | 89 | 1020.8 |
| 20260507025412 | 26 | 183 | 6.4 | 11.3 | 0.00 | 0.00 | 0.00 | 89 | 1020.7 |
| 20260507024910 | 26 | 178 | 4.8 | 4.8 | 0.00 | 0.00 | 0.00 | 88 | 1020.6 |
| 20260507024407 | 26 | 212 | 4.8 | 4.8 | 0.00 | 0.00 | 0.00 | 88 | 1020.5 |
| 20260507023902 | 26 | 206 | 3.2 | 3.2 | 0.00 | 0.00 | 0.00 | 88 | 1020.7 |
| 20260507023359 | 26 | 234 | 1.6 | 3.2 | 0.00 | 0.00 | 0.00 | 88 | 1020.8 |
| 20260507022858 | 26 | 289 | 3.2 | 3.2 | 0.00 | 0.00 | 0.00 | 88 | 1020.5 |
| 20260507022354 | 26 | 280 | 3.2 | 4.8 | 0.00 | 0.00 | 0.00 | 88 | 1020.5 |
| 20260507021849 | 26 | 296 | 4.8 | 6.4 | 0.00 | 0.00 | 0.00 | 88 | 1020.7 |
| 20260507021344 | 26 | 325 | 6.4 | 9.7 | 0.00 | 0.00 | 0.00 | 87 | 1020.7 |
| 20260507020843 | 26 | 340 | 6.4 | 6.4 | 0.00 | 0.00 | 0.00 | 87 | 1020.3 |
| 20260507020339 | 26 | 12 | 3.2 | 6.4 | 0.00 | 0.00 | 0.00 | 87 | 1020.5 |
| 20260507015836 | 26 | 335 | 1.6 | 9.7 | 0.00 | 0.00 | 0.00 | 87 | 1020.4 |
| 20260507015334 | 26 | 330 | 8.0 | 11.3 | 0.00 | 0.00 | 0.00 | 87 | 1020.2 |
| 20260507014831 | 26 | 356 | 6.4 | 12.9 | 0.00 | 0.00 | 0.00 | 87 | 1020.4 |
| 20260507014327 | 26 | 320 | 6.4 | 11.3 | 0.00 | 0.00 | 0.00 | 87 | 1020.3 |
| 20260507013823 | 26 | 330 | 4.8 | 6.4 | 0.00 | 0.00 | 0.00 | 87 | 1020.3 |
| 20260507013321 | 26 | 1 | 3.2 | 4.8 | 0.00 | 0.00 | 0.00 | 87 | 1020.3 |
| 20260507012818 | 26 | 342 | 4.8 | 6.4 | 0.00 | 0.00 | 0.00 | 87 | 1020.2 |
| 20260507012314 | 26 | 335 | 8.0 | 12.9 | 0.00 | 0.00 | 0.00 | 86 | 1020.2 |
| 20260507011811 | 26 | 349 | 11.3 | 12.9 | 0.00 | 0.00 | 0.00 | 86 | 1020.2 |
| 20260507011308 | 26 | 344 | 8.0 | 11.3 | 0.00 | 0.00 | 0.00 | 86 | 1020.1 |
| 20260507010808 | 26 | 340 | 6.4 | 12.9 | 0.00 | 0.00 | 0.00 | 86 | 1020.0 |
| 20260507010304 | 26 | 347 | 8.0 | 12.9 | 0.00 | 0.00 | 0.00 | 86 | 1020.1 |
| 20260507005801 | 26 | 357 | 6.4 | 6.4 | 0.00 | 0.00 | 0.00 | 86 | 1020.0 |
| 20260507005257 | 26 | 339 | 11.3 | 12.9 | 0.00 | 0.00 | 0.00 | 86 | 1020.1 |
| 20260507004754 | 26 | 359 | 9.7 | 12.9 | 0.00 | 0.00 | 0.00 | 85 | 1020.2 |
| 20260507004252 | 26 | 330 | 8.0 | 12.9 | 0.00 | 0.00 | 0.00 | 85 | 1020.0 |
| 20260507003748 | 26 | 345 | 6.4 | 11.3 | 0.00 | 0.00 | 0.00 | 85 | 1020.2 |
| 20260507003243 | 26 | 349 | 6.4 | 12.9 | 0.00 | 0.00 | 0.00 | 85 | 1020.0 |
| 20260507002740 | 26 | 327 | 11.3 | 12.9 | 0.00 | 0.00 | 0.00 | 84 | 1020.2 |
| 20260507002236 | 26 | 326 | 11.3 | 14.5 | 0.00 | 0.00 | 0.00 | 84 | 1019.8 |
| 20260507001733 | 26 | 336 | 12.9 | 14.5 | 0.00 | 0.00 | 0.00 | 84 | 1019.8 |
| 20260507001230 | 26 | 342 | 8.0 | 14.5 | 0.00 | 0.00 | 0.00 | 83 | 1019.7 |
| 20260507000727 | 26 | 358 | 6.4 | 14.5 | 0.00 | 0.00 | 0.00 | 83 | 1020.0 |
| 20260507000222 | 26 | 338 | 12.9 | 14.5 | 0.00 | 0.00 | 0.00 | 82 | 1019.9 |
| 20260506235719 | 26 | 15 | 6.4 | 12.9 | 0.00 | 0.00 | 0.00 | 82 | 1019.9 |
| 20260506235214 | 26 | 338 | 8.0 | 9.7 | 0.00 | 0.00 | 0.00 | 83 | 1019.7 |
| 20260506234712 | 26 | 327 | 8.0 | 12.9 | 0.00 | 0.00 | 0.00 | 82 | 1019.5 |
| 20260506234209 | 26 | 347 | 6.4 | 12.9 | 0.00 | 0.00 | 0.00 | 82 | 1019.8 |
| 20260506233707 | 26 | 3 | 6.4 | 9.7 | 0.00 | 0.00 | 0.00 | 82 | 1019.8 |
| 20260506233203 | 26 | 336 | 11.3 | 12.9 | 0.00 | 0.00 | 0.00 | 81 | 1019.5 |
| 20260506232659 | 26 | 2 | 14.5 | 14.5 | 0.00 | 0.00 | 0.00 | 80 | 1019.5 |
| 20260506232154 | 26 | 22 | 6.4 | 12.9 | 0.00 | 0.00 | 0.00 | 80 | 1019.5 |
| 20260506231652 | 26 | 10 | 11.3 | 14.5 | 0.00 | 0.00 | 0.00 | 80 | 1019.7 |
| 20260506231150 | 26 | 349 | 9.7 | 12.9 | 0.00 | 0.00 | 0.00 | 79 | 1019.6 |
| 20260506230647 | 28 | 312 | 14.5 | 16.1 | 0.00 | 0.00 | 0.00 | 77 | 1019.3 |
| 20260506230143 | -17 | 137 | 12.9 | 14.5 | 0.00 | 0.00 | 0.00 | 1019.4 | |
| 20260506225640 | -17 | 13 | 6.4 | 6.4 | 0.00 | 0.00 | 0.00 | 1019.0 | |
| 20260506225137 | -17 | 331 | 4.8 | 9.7 | 0.00 | 0.00 | 0.00 | 1019.2 | |
| 20260506224633 | -17 | 21 | 9.7 | 12.9 | 0.00 | 0.00 | 0.00 | 1019.4 | |
| 20260506224130 | -17 | 17 | 11.3 | 12.9 | 0.00 | 0.00 | 0.00 | 1019.1 | |
| 20260506223626 | -17 | 16 | 8.0 | 9.7 | 0.00 | 0.00 | 0.00 | 1019.3 | |
| 20260506223122 | -17 | 22 | 9.7 | 11.3 | 0.00 | 0.00 | 0.00 | 1018.8 | |
| 20260506222620 | -17 | 37 | 6.4 | 12.9 | 0.00 | 0.00 | 0.00 | 1019.0 | |
| 20260506222116 | -17 | 19 | 9.7 | 14.5 | 0.00 | 0.00 | 0.00 | 1018.8 | |
| 20260506221614 | -17 | 24 | 9.7 | 11.3 | 0.00 | 0.00 | 0.00 | 1018.9 | |
| 20260506221111 | -17 | 15 | 6.4 | 11.3 | 0.00 | 0.00 | 0.00 | 1018.7 | |
| 20260506220608 | -17 | 21 | 9.7 | 12.9 | 0.00 | 0.00 | 0.00 | 1018.7 | |
| 20260506215600 | -17 | 26 | 8.0 | 11.3 | 0.00 | 0.00 | 0.00 | 1018.7 | |
| 20260506215055 | -17 | 36 | 4.8 | 12.9 | 0.00 | 0.00 | 0.00 | 1018.7 | |
| 20260506214552 | -17 | 13 | 11.3 | 12.9 | 0.00 | 0.00 | 0.00 | 1018.8 | |
| 20260506214050 | -17 | 30 | 8.0 | 12.9 | 0.00 | 0.00 | 0.00 | 1018.7 | |
| 20260506213548 | -17 | 15 | 11.3 | 14.5 | 0.00 | 0.00 | 0.00 | 1018.6 | |
| 20260506213045 | -17 | 12 | 9.7 | 12.9 | 0.00 | 0.00 | 0.00 | 1018.7 | |
| 20260506212541 | -17 | 17 | 8.0 | 12.9 | 0.00 | 0.00 | 0.00 | 1018.4 | |
| 20260506212036 | -17 | 24 | 11.3 | 12.9 | 0.00 | 0.00 | 0.00 | 1018.4 | |
| 20260506211532 | -17 | 28 | 9.7 | 12.9 | 0.00 | 0.00 | 0.00 | 1018.3 | |
| 20260506211030 | -17 | 22 | 9.7 | 12.9 | 0.00 | 0.00 | 0.00 | 1018.5 | |
| 20260506210526 | -17 | 38 | 4.8 | 9.7 | 0.00 | 0.00 | 0.00 | 1018.6 | |
| 20260506210023 | -17 | 23 | 8.0 | 11.3 | 0.00 | 0.00 | 0.00 | 1018.5 | |
| 20260506205520 | -17 | 47 | 9.7 | 12.9 | 0.00 | 0.00 | 0.00 | 1018.3 |